Aviation Digital Data Service (ADDS)

Output produced by METARs form (1213 UTC 23 August 2017)
found at http://aviationweather.gov/adds/metars/
 
KEWR 231122Z 2312/2418 28011KT P6SM FEW020 SCT040 BKN100 
     FM231400 31011KT P6SM SCT040 BKN250 
     FM231700 29010KT P6SM BKN250 
     FM240100 32007KT P6SM SKC 
     FM240600 35007KT P6SM SKC